sensor_id;sensor_type;location;lat;lon;timestamp;P1;durP1;ratioP1;P2;durP2;ratioP2
17866;SDS011;9059;49.934;8.650;2022-12-28T00:00:28;8.07;;;1.93;;
17866;SDS011;9059;49.934;8.650;2022-12-28T00:01:32;7.90;;;2.10;;
17866;SDS011;9059;49.934;8.650;2022-12-28T00:02:35;9.90;;;1.70;;
17866;SDS011;9059;49.934;8.650;2022-12-28T00:03:37;10.93;;;1.93;;
17866;SDS011;9059;49.934;8.650;2022-12-28T00:04:40;3.73;;;2.03;;
17866;SDS011;9059;49.934;8.650;2022-12-28T00:05:41;5.70;;;2.13;;
17866;SDS011;9059;49.934;8.650;2022-12-28T00:06:44;8.37;;;2.30;;
17866;SDS011;9059;49.934;8.650;2022-12-28T00:07:47;9.07;;;2.00;;
17866;SDS011;9059;49.934;8.650;2022-12-28T00:08:51;6.80;;;2.10;;
17866;SDS011;9059;49.934;8.650;2022-12-28T00:09:53;7.90;;;1.87;;
17866;SDS011;9059;49.934;8.650;2022-12-28T00:10:58;4.43;;;1.53;;
17866;SDS011;9059;49.934;8.650;2022-12-28T00:12:10;6.03;;;2.13;;
17866;SDS011;9059;49.934;8.650;2022-12-28T00:13:13;5.40;;;1.90;;
17866;SDS011;9059;49.934;8.650;2022-12-28T00:14:15;3.53;;;1.70;;
17866;SDS011;9059;49.934;8.650;2022-12-28T00:15:18;8.30;;;2.00;;
17866;SDS011;9059;49.934;8.650;2022-12-28T00:16:20;7.57;;;2.23;;
17866;SDS011;9059;49.934;8.650;2022-12-28T00:17:27;5.53;;;2.13;;
17866;SDS011;9059;49.934;8.650;2022-12-28T00:18:31;5.10;;;2.10;;
17866;SDS011;9059;49.934;8.650;2022-12-28T00:19:34;8.80;;;1.97;;
17866;SDS011;9059;49.934;8.650;2022-12-28T00:20:37;4.80;;;1.73;;
17866;SDS011;9059;49.934;8.650;2022-12-28T00:21:38;7.87;;;1.97;;
17866;SDS011;9059;49.934;8.650;2022-12-28T00:22:41;8.30;;;2.60;;
17866;SDS011;9059;49.934;8.650;2022-12-28T00:23:43;8.63;;;2.20;;
17866;SDS011;9059;49.934;8.650;2022-12-28T00:24:46;5.63;;;2.20;;
17866;SDS011;9059;49.934;8.650;2022-12-28T00:25:47;5.83;;;2.13;;
17866;SDS011;9059;49.934;8.650;2022-12-28T00:26:50;5.63;;;2.50;;
17866;SDS011;9059;49.934;8.650;2022-12-28T00:27:52;4.27;;;2.00;;
17866;SDS011;9059;49.934;8.650;2022-12-28T00:28:55;8.60;;;2.10;;
17866;SDS011;9059;49.934;8.650;2022-12-28T00:30:05;10.63;;;2.40;;
17866;SDS011;9059;49.934;8.650;2022-12-28T00:31:09;5.33;;;2.03;;
17866;SDS011;9059;49.934;8.650;2022-12-28T00:32:11;5.17;;;1.97;;
17866;SDS011;9059;49.934;8.650;2022-12-28T00:33:15;5.03;;;2.23;;
17866;SDS011;9059;49.934;8.650;2022-12-28T00:34:16;6.53;;;2.50;;
17866;SDS011;9059;49.934;8.650;2022-12-28T00:35:19;5.60;;;1.83;;
17866;SDS011;9059;49.934;8.650;2022-12-28T00:36:21;6.43;;;2.10;;
17866;SDS011;9059;49.934;8.650;2022-12-28T00:37:23;5.03;;;2.57;;
17866;SDS011;9059;49.934;8.650;2022-12-28T00:38:26;5.47;;;2.03;;
17866;SDS011;9059;49.934;8.650;2022-12-28T00:39:29;8.03;;;2.40;;
17866;SDS011;9059;49.934;8.650;2022-12-28T00:40:31;6.47;;;2.40;;
17866;SDS011;9059;49.934;8.650;2022-12-28T00:41:34;6.40;;;2.53;;
17866;SDS011;9059;49.934;8.650;2022-12-28T00:42:35;4.80;;;2.73;;
17866;SDS011;9059;49.934;8.650;2022-12-28T00:43:38;6.80;;;2.27;;
17866;SDS011;9059;49.934;8.650;2022-12-28T00:44:40;4.77;;;1.93;;
17866;SDS011;9059;49.934;8.650;2022-12-28T00:45:43;5.23;;;2.17;;
17866;SDS011;9059;49.934;8.650;2022-12-28T00:46:45;7.37;;;2.77;;
17866;SDS011;9059;49.934;8.650;2022-12-28T00:47:48;7.93;;;2.80;;
17866;SDS011;9059;49.934;8.650;2022-12-28T00:48:51;5.20;;;2.30;;
17866;SDS011;9059;49.934;8.650;2022-12-28T00:49:54;6.43;;;2.90;;
17866;SDS011;9059;49.934;8.650;2022-12-28T00:51:00;5.37;;;2.27;;
17866;SDS011;9059;49.934;8.650;2022-12-28T00:52:03;5.67;;;2.70;;
17866;SDS011;9059;49.934;8.650;2022-12-28T00:53:06;4.43;;;2.37;;
17866;SDS011;9059;49.934;8.650;2022-12-28T00:54:08;6.10;;;2.70;;
17866;SDS011;9059;49.934;8.650;2022-12-28T00:55:11;7.15;;;2.33;;
17866;SDS011;9059;49.934;8.650;2022-12-28T00:56:13;8.27;;;2.47;;
17866;SDS011;9059;49.934;8.650;2022-12-28T00:57:17;6.70;;;2.43;;
17866;SDS011;9059;49.934;8.650;2022-12-28T00:58:19;5.93;;;2.53;;
17866;SDS011;9059;49.934;8.650;2022-12-28T00:59:22;7.73;;;2.40;;
17866;SDS011;9059;49.934;8.650;2022-12-28T01:00:24;7.60;;;2.60;;
17866;SDS011;9059;49.934;8.650;2022-12-28T01:01:27;5.00;;;2.57;;
17866;SDS011;9059;49.934;8.650;2022-12-28T01:02:29;5.57;;;2.30;;
17866;SDS011;9059;49.934;8.650;2022-12-28T01:03:32;5.30;;;2.22;;
17866;SDS011;9059;49.934;8.650;2022-12-28T01:04:35;4.78;;;2.47;;
17866;SDS011;9059;49.934;8.650;2022-12-28T01:05:37;6.03;;;2.72;;
17866;SDS011;9059;49.934;8.650;2022-12-28T01:06:40;5.93;;;3.00;;
17866;SDS011;9059;49.934;8.650;2022-12-28T01:07:42;6.55;;;2.55;;
17866;SDS011;9059;49.934;8.650;2022-12-28T01:08:44;9.13;;;2.75;;
17866;SDS011;9059;49.934;8.650;2022-12-28T01:09:47;6.20;;;2.50;;
17866;SDS011;9059;49.934;8.650;2022-12-28T01:10:50;6.87;;;2.70;;
17866;SDS011;9059;49.934;8.650;2022-12-28T01:11:52;7.90;;;2.60;;
17866;SDS011;9059;49.934;8.650;2022-12-28T01:12:54;6.50;;;2.97;;
17866;SDS011;9059;49.934;8.650;2022-12-28T01:13:58;5.20;;;2.80;;
17866;SDS011;9059;49.934;8.650;2022-12-28T01:15:03;6.53;;;2.97;;
17866;SDS011;9059;49.934;8.650;2022-12-28T01:16:10;9.03;;;2.80;;
17866;SDS011;9059;49.934;8.650;2022-12-28T01:17:13;6.67;;;2.67;;
17866;SDS011;9059;49.934;8.650;2022-12-28T01:18:16;7.77;;;2.60;;
17866;SDS011;9059;49.934;8.650;2022-12-28T01:19:19;7.37;;;2.63;;
17866;SDS011;9059;49.934;8.650;2022-12-28T01:20:24;7.43;;;2.30;;
17866;SDS011;9059;49.934;8.650;2022-12-28T01:21:26;5.93;;;2.90;;
17866;SDS011;9059;49.934;8.650;2022-12-28T01:22:30;8.57;;;3.23;;
17866;SDS011;9059;49.934;8.650;2022-12-28T01:23:32;7.20;;;2.37;;
17866;SDS011;9059;49.934;8.650;2022-12-28T01:24:35;5.82;;;2.60;;
17866;SDS011;9059;49.934;8.650;2022-12-28T01:25:36;5.28;;;2.72;;
17866;SDS011;9059;49.934;8.650;2022-12-28T01:26:39;6.45;;;2.67;;
17866;SDS011;9059;49.934;8.650;2022-12-28T01:27:41;6.27;;;2.40;;
17866;SDS011;9059;49.934;8.650;2022-12-28T01:28:44;8.30;;;2.60;;
17866;SDS011;9059;49.934;8.650;2022-12-28T01:29:45;7.72;;;2.72;;
17866;SDS011;9059;49.934;8.650;2022-12-28T01:30:48;8.77;;;3.03;;
17866;SDS011;9059;49.934;8.650;2022-12-28T01:31:50;5.18;;;2.45;;
17866;SDS011;9059;49.934;8.650;2022-12-28T01:32:53;7.73;;;3.00;;
17866;SDS011;9059;49.934;8.650;2022-12-28T01:33:55;6.67;;;2.37;;
17866;SDS011;9059;49.934;8.650;2022-12-28T01:34:57;7.18;;;2.83;;
17866;SDS011;9059;49.934;8.650;2022-12-28T01:36:05;7.23;;;1.93;;
17866;SDS011;9059;49.934;8.650;2022-12-28T01:37:08;5.23;;;2.80;;
17866;SDS011;9059;49.934;8.650;2022-12-28T01:38:10;6.17;;;2.97;;
17866;SDS011;9059;49.934;8.650;2022-12-28T01:39:12;5.75;;;2.63;;
17866;SDS011;9059;49.934;8.650;2022-12-28T01:40:15;6.73;;;2.60;;
17866;SDS011;9059;49.934;8.650;2022-12-28T01:41:18;10.57;;;2.90;;
17866;SDS011;9059;49.934;8.650;2022-12-28T01:42:21;10.33;;;2.87;;
17866;SDS011;9059;49.934;8.650;2022-12-28T01:43:33;4.78;;;2.25;;
17866;SDS011;9059;49.934;8.650;2022-12-28T01:44:39;4.83;;;2.33;;
17866;SDS011;9059;49.934;8.650;2022-12-28T01:45:45;6.70;;;2.43;;
17866;SDS011;9059;49.934;8.650;2022-12-28T01:46:51;6.90;;;2.90;;
17866;SDS011;9059;49.934;8.650;2022-12-28T01:47:54;9.23;;;2.38;;
17866;SDS011;9059;49.934;8.650;2022-12-28T01:48:58;9.63;;;2.70;;
17866;SDS011;9059;49.934;8.650;2022-12-28T01:50:03;7.97;;;2.53;;
17866;SDS011;9059;49.934;8.650;2022-12-28T01:51:09;6.20;;;2.50;;
17866;SDS011;9059;49.934;8.650;2022-12-28T01:52:12;5.63;;;2.30;;
17866;SDS011;9059;49.934;8.650;2022-12-28T01:53:19;3.00;;;1.80;;
17866;SDS011;9059;49.934;8.650;2022-12-28T01:54:22;4.13;;;2.17;;
17866;SDS011;9059;49.934;8.650;2022-12-28T01:55:26;4.83;;;2.60;;
17866;SDS011;9059;49.934;8.650;2022-12-28T01:56:30;7.03;;;1.90;;
17866;SDS011;9059;49.934;8.650;2022-12-28T01:57:33;7.28;;;2.25;;
17866;SDS011;9059;49.934;8.650;2022-12-28T01:58:38;5.87;;;2.10;;
17866;SDS011;9059;49.934;8.650;2022-12-28T01:59:41;8.97;;;2.30;;
17866;SDS011;9059;49.934;8.650;2022-12-28T02:00:49;5.77;;;2.30;;
17866;SDS011;9059;49.934;8.650;2022-12-28T02:01:52;3.10;;;1.70;;
17866;SDS011;9059;49.934;8.650;2022-12-28T02:02:55;7.72;;;2.08;;
17866;SDS011;9059;49.934;8.650;2022-12-28T02:04:00;6.17;;;2.00;;
17866;SDS011;9059;49.934;8.650;2022-12-28T02:05:03;6.15;;;2.05;;
17866;SDS011;9059;49.934;8.650;2022-12-28T02:06:07;4.30;;;1.80;;
17866;SDS011;9059;49.934;8.650;2022-12-28T02:07:12;5.32;;;2.00;;
17866;SDS011;9059;49.934;8.650;2022-12-28T02:08:21;5.87;;;2.10;;
17866;SDS011;9059;49.934;8.650;2022-12-28T02:09:26;5.85;;;2.00;;
17866;SDS011;9059;49.934;8.650;2022-12-28T02:10:31;4.20;;;1.60;;
17866;SDS011;9059;49.934;8.650;2022-12-28T02:11:46;8.17;;;1.67;;
17866;SDS011;9059;49.934;8.650;2022-12-28T02:12:48;5.10;;;1.40;;
17866;SDS011;9059;49.934;8.650;2022-12-28T02:13:51;3.83;;;1.63;;
17866;SDS011;9059;49.934;8.650;2022-12-28T02:14:53;5.20;;;1.70;;
17866;SDS011;9059;49.934;8.650;2022-12-28T02:15:55;2.85;;;1.65;;
17866;SDS011;9059;49.934;8.650;2022-12-28T02:16:57;4.57;;;1.80;;
17866;SDS011;9059;49.934;8.650;2022-12-28T02:18:00;4.37;;;2.03;;
17866;SDS011;9059;49.934;8.650;2022-12-28T02:19:02;4.10;;;1.80;;
17866;SDS011;9059;49.934;8.650;2022-12-28T02:20:07;10.47;;;2.10;;
17866;SDS011;9059;49.934;8.650;2022-12-28T02:21:14;6.05;;;1.67;;
17866;SDS011;9059;49.934;8.650;2022-12-28T02:22:37;5.23;;;1.37;;
17866;SDS011;9059;49.934;8.650;2022-12-28T02:24:07;4.43;;;2.28;;
17866;SDS011;9059;49.934;8.650;2022-12-28T02:27:00;6.57;;;1.85;;
17866;SDS011;9059;49.934;8.650;2022-12-28T02:28:07;4.33;;;1.73;;
17866;SDS011;9059;49.934;8.650;2022-12-28T02:29:28;4.47;;;2.00;;
17866;SDS011;9059;49.934;8.650;2022-12-28T02:30:46;3.30;;;1.90;;
17866;SDS011;9059;49.934;8.650;2022-12-28T02:31:53;3.65;;;1.80;;
17866;SDS011;9059;49.934;8.650;2022-12-28T02:33:02;6.53;;;1.75;;
17866;SDS011;9059;49.934;8.650;2022-12-28T02:34:10;4.63;;;1.50;;
17866;SDS011;9059;49.934;8.650;2022-12-28T02:35:18;6.35;;;1.83;;
17866;SDS011;9059;49.934;8.650;2022-12-28T02:36:24;2.40;;;1.38;;
17866;SDS011;9059;49.934;8.650;2022-12-28T02:37:30;4.40;;;1.90;;
17866;SDS011;9059;49.934;8.650;2022-12-28T02:38:36;6.90;;;1.88;;
17866;SDS011;9059;49.934;8.650;2022-12-28T02:39:42;3.40;;;1.35;;
17866;SDS011;9059;49.934;8.650;2022-12-28T02:40:48;4.28;;;1.48;;
17866;SDS011;9059;49.934;8.650;2022-12-28T02:41:51;5.72;;;2.00;;
17866;SDS011;9059;49.934;8.650;2022-12-28T02:42:53;3.72;;;1.38;;
17866;SDS011;9059;49.934;8.650;2022-12-28T02:43:56;3.65;;;1.50;;
17866;SDS011;9059;49.934;8.650;2022-12-28T02:45:00;3.70;;;1.40;;
17866;SDS011;9059;49.934;8.650;2022-12-28T02:46:21;4.45;;;1.75;;
17866;SDS011;9059;49.934;8.650;2022-12-28T02:47:42;4.22;;;1.60;;
17866;SDS011;9059;49.934;8.650;2022-12-28T02:49:14;4.60;;;1.80;;
17866;SDS011;9059;49.934;8.650;2022-12-28T02:50:40;4.03;;;1.60;;
17866;SDS011;9059;49.934;8.650;2022-12-28T02:51:53;5.28;;;1.88;;
17866;SDS011;9059;49.934;8.650;2022-12-28T02:53:03;4.55;;;1.80;;
17866;SDS011;9059;49.934;8.650;2022-12-28T02:54:19;4.63;;;1.67;;
17866;SDS011;9059;49.934;8.650;2022-12-28T02:55:55;3.70;;;1.75;;
17866;SDS011;9059;49.934;8.650;2022-12-28T02:57:10;12.65;;;2.35;;
17866;SDS011;9059;49.934;8.650;2022-12-28T02:58:25;7.30;;;2.40;;
17866;SDS011;9059;49.934;8.650;2022-12-28T02:59:42;5.25;;;1.48;;
17866;SDS011;9059;49.934;8.650;2022-12-28T03:00:57;5.75;;;1.55;;
17866;SDS011;9059;49.934;8.650;2022-12-28T03:03:31;6.03;;;1.83;;
17866;SDS011;9059;49.934;8.650;2022-12-28T03:04:36;5.53;;;1.85;;
17866;SDS011;9059;49.934;8.650;2022-12-28T03:05:50;3.55;;;1.80;;
17866;SDS011;9059;49.934;8.650;2022-12-28T03:07:22;5.25;;;1.50;;
17866;SDS011;9059;49.934;8.650;2022-12-28T03:08:45;5.63;;;2.05;;
17866;SDS011;9059;49.934;8.650;2022-12-28T03:09:53;4.22;;;2.13;;
17866;SDS011;9059;49.934;8.650;2022-12-28T03:11:01;7.93;;;2.03;;
17866;SDS011;9059;49.934;8.650;2022-12-28T03:12:05;6.60;;;2.22;;
17866;SDS011;9059;49.934;8.650;2022-12-28T03:13:11;8.30;;;1.77;;
17866;SDS011;9059;49.934;8.650;2022-12-28T03:14:31;5.15;;;2.17;;
17866;SDS011;9059;49.934;8.650;2022-12-28T03:15:37;6.45;;;2.40;;
17866;SDS011;9059;49.934;8.650;2022-12-28T03:16:41;5.13;;;2.35;;
17866;SDS011;9059;49.934;8.650;2022-12-28T03:18:00;3.67;;;1.95;;
17866;SDS011;9059;49.934;8.650;2022-12-28T03:19:22;4.07;;;2.10;;
17866;SDS011;9059;49.934;8.650;2022-12-28T03:20:46;4.55;;;2.13;;
17866;SDS011;9059;49.934;8.650;2022-12-28T03:22:07;7.63;;;2.17;;
17866;SDS011;9059;49.934;8.650;2022-12-28T03:23:28;4.13;;;2.15;;
17866;SDS011;9059;49.934;8.650;2022-12-28T03:24:50;4.95;;;2.55;;
17866;SDS011;9059;49.934;8.650;2022-12-28T03:26:11;6.93;;;2.08;;
17866;SDS011;9059;49.934;8.650;2022-12-28T03:27:32;5.90;;;2.38;;
17866;SDS011;9059;49.934;8.650;2022-12-28T03:28:53;6.32;;;2.45;;
17866;SDS011;9059;49.934;8.650;2022-12-28T03:30:14;9.32;;;2.05;;
17866;SDS011;9059;49.934;8.650;2022-12-28T03:31:38;6.90;;;2.80;;
17866;SDS011;9059;49.934;8.650;2022-12-28T03:32:42;4.80;;;2.50;;
17866;SDS011;9059;49.934;8.650;2022-12-28T03:33:45;3.08;;;1.98;;
17866;SDS011;9059;49.934;8.650;2022-12-28T03:34:49;7.70;;;2.60;;
17866;SDS011;9059;49.934;8.650;2022-12-28T03:35:54;6.68;;;2.47;;
17866;SDS011;9059;49.934;8.650;2022-12-28T03:37:01;4.80;;;2.40;;
17866;SDS011;9059;49.934;8.650;2022-12-28T03:38:08;6.50;;;2.70;;
17866;SDS011;9059;49.934;8.650;2022-12-28T03:39:16;4.13;;;2.28;;
17866;SDS011;9059;49.934;8.650;2022-12-28T03:40:26;5.40;;;2.80;;
17866;SDS011;9059;49.934;8.650;2022-12-28T03:41:33;4.45;;;2.15;;
17866;SDS011;9059;49.934;8.650;2022-12-28T03:42:37;7.15;;;2.22;;
17866;SDS011;9059;49.934;8.650;2022-12-28T03:44:01;7.03;;;2.80;;
17866;SDS011;9059;49.934;8.650;2022-12-28T03:45:08;5.85;;;2.65;;
17866;SDS011;9059;49.934;8.650;2022-12-28T03:46:35;7.28;;;2.47;;
17866;SDS011;9059;49.934;8.650;2022-12-28T03:47:43;4.65;;;2.50;;
17866;SDS011;9059;49.934;8.650;2022-12-28T03:48:45;7.30;;;2.65;;
17866;SDS011;9059;49.934;8.650;2022-12-28T03:49:49;7.18;;;2.90;;
17866;SDS011;9059;49.934;8.650;2022-12-28T03:50:51;7.37;;;2.33;;
17866;SDS011;9059;49.934;8.650;2022-12-28T03:51:55;11.52;;;2.90;;
17866;SDS011;9059;49.934;8.650;2022-12-28T03:52:56;9.02;;;2.50;;
17866;SDS011;9059;49.934;8.650;2022-12-28T03:53:59;5.80;;;2.60;;
17866;SDS011;9059;49.934;8.650;2022-12-28T03:55:01;7.70;;;3.10;;
17866;SDS011;9059;49.934;8.650;2022-12-28T03:56:05;6.43;;;2.63;;
17866;SDS011;9059;49.934;8.650;2022-12-28T03:57:08;3.72;;;1.95;;
17866;SDS011;9059;49.934;8.650;2022-12-28T03:58:10;5.85;;;2.53;;
17866;SDS011;9059;49.934;8.650;2022-12-28T03:59:12;8.05;;;2.42;;
17866;SDS011;9059;49.934;8.650;2022-12-28T04:00:15;4.95;;;2.05;;
17866;SDS011;9059;49.934;8.650;2022-12-28T04:01:17;6.53;;;2.57;;
17866;SDS011;9059;49.934;8.650;2022-12-28T04:02:20;10.50;;;2.50;;
17866;SDS011;9059;49.934;8.650;2022-12-28T04:03:24;6.38;;;2.30;;
17866;SDS011;9059;49.934;8.650;2022-12-28T04:04:29;5.35;;;2.22;;
17866;SDS011;9059;49.934;8.650;2022-12-28T04:05:31;3.80;;;2.20;;
17866;SDS011;9059;49.934;8.650;2022-12-28T04:06:34;5.30;;;2.28;;
17866;SDS011;9059;49.934;8.650;2022-12-28T04:07:36;3.78;;;2.20;;
17866;SDS011;9059;49.934;8.650;2022-12-28T04:08:38;8.52;;;2.50;;
17866;SDS011;9059;49.934;8.650;2022-12-28T04:09:40;8.25;;;2.42;;
17866;SDS011;9059;49.934;8.650;2022-12-28T04:10:43;5.75;;;2.65;;
17866;SDS011;9059;49.934;8.650;2022-12-28T04:11:45;3.20;;;1.83;;
17866;SDS011;9059;49.934;8.650;2022-12-28T04:12:47;4.88;;;2.42;;
17866;SDS011;9059;49.934;8.650;2022-12-28T04:13:49;4.88;;;2.13;;
17866;SDS011;9059;49.934;8.650;2022-12-28T04:14:52;4.93;;;2.00;;
17866;SDS011;9059;49.934;8.650;2022-12-28T04:15:54;5.18;;;2.10;;
17866;SDS011;9059;49.934;8.650;2022-12-28T04:16:58;3.22;;;1.63;;
17866;SDS011;9059;49.934;8.650;2022-12-28T04:18:00;4.27;;;2.00;;
17866;SDS011;9059;49.934;8.650;2022-12-28T04:19:04;5.47;;;2.25;;
17866;SDS011;9059;49.934;8.650;2022-12-28T04:20:06;3.65;;;1.92;;
17866;SDS011;9059;49.934;8.650;2022-12-28T04:21:10;2.78;;;1.55;;
17866;SDS011;9059;49.934;8.650;2022-12-28T04:22:13;5.07;;;1.92;;
17866;SDS011;9059;49.934;8.650;2022-12-28T04:23:15;2.67;;;1.70;;
17866;SDS011;9059;49.934;8.650;2022-12-28T04:24:17;5.30;;;1.83;;
17866;SDS011;9059;49.934;8.650;2022-12-28T04:25:20;4.43;;;1.90;;
17866;SDS011;9059;49.934;8.650;2022-12-28T04:26:21;4.10;;;1.98;;
17866;SDS011;9059;49.934;8.650;2022-12-28T04:27:24;7.35;;;2.25;;
17866;SDS011;9059;49.934;8.650;2022-12-28T04:28:26;4.10;;;1.75;;
17866;SDS011;9059;49.934;8.650;2022-12-28T04:29:29;4.70;;;2.03;;
17866;SDS011;9059;49.934;8.650;2022-12-28T04:30:31;2.85;;;1.63;;
17866;SDS011;9059;49.934;8.650;2022-12-28T04:31:33;3.50;;;1.75;;
17866;SDS011;9059;49.934;8.650;2022-12-28T04:32:35;6.57;;;2.00;;
17866;SDS011;9059;49.934;8.650;2022-12-28T04:33:39;5.40;;;1.57;;
17866;SDS011;9059;49.934;8.650;2022-12-28T04:34:42;2.67;;;1.50;;
17866;SDS011;9059;49.934;8.650;2022-12-28T04:35:49;3.70;;;1.85;;
17866;SDS011;9059;49.934;8.650;2022-12-28T04:36:51;2.55;;;1.30;;
17866;SDS011;9059;49.934;8.650;2022-12-28T04:37:53;5.05;;;1.67;;
17866;SDS011;9059;49.934;8.650;2022-12-28T04:38:56;4.45;;;1.77;;
17866;SDS011;9059;49.934;8.650;2022-12-28T04:39:59;3.97;;;1.65;;
17866;SDS011;9059;49.934;8.650;2022-12-28T04:41:01;4.13;;;1.70;;
17866;SDS011;9059;49.934;8.650;2022-12-28T04:42:05;6.90;;;1.63;;
17866;SDS011;9059;49.934;8.650;2022-12-28T04:43:07;4.50;;;1.42;;
17866;SDS011;9059;49.934;8.650;2022-12-28T04:44:09;5.60;;;1.40;;
17866;SDS011;9059;49.934;8.650;2022-12-28T04:45:11;3.38;;;1.42;;
17866;SDS011;9059;49.934;8.650;2022-12-28T04:46:22;5.10;;;1.77;;
17866;SDS011;9059;49.934;8.650;2022-12-28T04:47:25;3.00;;;1.35;;
17866;SDS011;9059;49.934;8.650;2022-12-28T04:48:28;5.60;;;1.45;;
17866;SDS011;9059;49.934;8.650;2022-12-28T04:49:30;3.60;;;1.65;;
17866;SDS011;9059;49.934;8.650;2022-12-28T04:50:34;2.70;;;1.20;;
17866;SDS011;9059;49.934;8.650;2022-12-28T04:51:36;5.25;;;1.60;;
17866;SDS011;9059;49.934;8.650;2022-12-28T04:52:39;2.70;;;1.35;;
17866;SDS011;9059;49.934;8.650;2022-12-28T04:53:41;6.13;;;1.60;;
17866;SDS011;9059;49.934;8.650;2022-12-28T04:54:43;3.95;;;1.60;;
17866;SDS011;9059;49.934;8.650;2022-12-28T04:55:45;4.28;;;1.58;;
17866;SDS011;9059;49.934;8.650;2022-12-28T04:56:48;2.00;;;1.30;;
17866;SDS011;9059;49.934;8.650;2022-12-28T04:57:50;2.33;;;1.47;;
17866;SDS011;9059;49.934;8.650;2022-12-28T04:58:53;3.80;;;1.42;;
17866;SDS011;9059;49.934;8.650;2022-12-28T04:59:55;5.35;;;1.58;;
17866;SDS011;9059;49.934;8.650;2022-12-28T05:01:02;3.92;;;1.42;;
17866;SDS011;9059;49.934;8.650;2022-12-28T05:02:04;4.53;;;1.30;;
17866;SDS011;9059;49.934;8.650;2022-12-28T05:03:07;2.92;;;1.23;;
17866;SDS011;9059;49.934;8.650;2022-12-28T05:04:09;1.95;;;1.08;;
17866;SDS011;9059;49.934;8.650;2022-12-28T05:05:11;6.40;;;1.50;;
17866;SDS011;9059;49.934;8.650;2022-12-28T05:06:15;5.88;;;1.20;;
17866;SDS011;9059;49.934;8.650;2022-12-28T05:07:18;3.67;;;1.45;;
17866;SDS011;9059;49.934;8.650;2022-12-28T05:08:20;2.55;;;1.30;;
17866;SDS011;9059;49.934;8.650;2022-12-28T05:09:23;2.85;;;1.15;;
17866;SDS011;9059;49.934;8.650;2022-12-28T05:10:25;4.85;;;1.33;;
17866;SDS011;9059;49.934;8.650;2022-12-28T05:11:27;2.17;;;1.05;;
17866;SDS011;9059;49.934;8.650;2022-12-28T05:12:29;3.28;;;1.55;;
17866;SDS011;9059;49.934;8.650;2022-12-28T05:13:32;3.92;;;1.30;;
17866;SDS011;9059;49.934;8.650;2022-12-28T05:14:34;3.13;;;0.98;;
17866;SDS011;9059;49.934;8.650;2022-12-28T05:15:37;3.65;;;1.50;;
17866;SDS011;9059;49.934;8.650;2022-12-28T05:16:39;5.10;;;1.40;;
17866;SDS011;9059;49.934;8.650;2022-12-28T05:17:42;5.43;;;1.63;;
17866;SDS011;9059;49.934;8.650;2022-12-28T05:18:44;2.78;;;1.33;;
17866;SDS011;9059;49.934;8.650;2022-12-28T05:19:46;2.33;;;1.10;;
17866;SDS011;9059;49.934;8.650;2022-12-28T05:20:48;3.38;;;1.17;;
17866;SDS011;9059;49.934;8.650;2022-12-28T05:21:52;4.40;;;1.30;;
17866;SDS011;9059;49.934;8.650;2022-12-28T05:22:54;3.50;;;1.35;;
17866;SDS011;9059;49.934;8.650;2022-12-28T05:23:57;6.80;;;1.65;;
17866;SDS011;9059;49.934;8.650;2022-12-28T05:24:59;5.75;;;1.75;;
17866;SDS011;9059;49.934;8.650;2022-12-28T05:26:02;2.60;;;1.42;;
17866;SDS011;9059;49.934;8.650;2022-12-28T05:27:04;2.63;;;1.30;;
17866;SDS011;9059;49.934;8.650;2022-12-28T05:28:06;2.80;;;0.90;;
17866;SDS011;9059;49.934;8.650;2022-12-28T05:29:08;3.70;;;1.60;;
17866;SDS011;9059;49.934;8.650;2022-12-28T05:30:11;2.40;;;1.52;;
17866;SDS011;9059;49.934;8.650;2022-12-28T05:31:14;7.20;;;1.60;;
17866;SDS011;9059;49.934;8.650;2022-12-28T05:32:18;2.55;;;1.10;;
17866;SDS011;9059;49.934;8.650;2022-12-28T05:33:19;2.30;;;1.10;;
17866;SDS011;9059;49.934;8.650;2022-12-28T05:34:22;4.07;;;1.52;;
17866;SDS011;9059;49.934;8.650;2022-12-28T05:35:24;4.35;;;1.33;;
17866;SDS011;9059;49.934;8.650;2022-12-28T05:36:26;1.05;;;0.60;;
17866;SDS011;9059;49.934;8.650;2022-12-28T05:37:30;5.40;;;1.40;;
17866;SDS011;9059;49.934;8.650;2022-12-28T05:38:33;5.82;;;1.48;;
17866;SDS011;9059;49.934;8.650;2022-12-28T05:39:35;2.70;;;1.20;;
17866;SDS011;9059;49.934;8.650;2022-12-28T05:40:37;3.17;;;1.65;;
17866;SDS011;9059;49.934;8.650;2022-12-28T05:41:39;3.75;;;1.35;;
17866;SDS011;9059;49.934;8.650;2022-12-28T05:42:42;5.60;;;1.42;;
17866;SDS011;9059;49.934;8.650;2022-12-28T05:43:51;2.92;;;1.38;;
17866;SDS011;9059;49.934;8.650;2022-12-28T05:44:55;3.20;;;1.58;;
17866;SDS011;9059;49.934;8.650;2022-12-28T05:45:58;2.78;;;1.25;;
17866;SDS011;9059;49.934;8.650;2022-12-28T05:47:02;2.42;;;1.33;;
17866;SDS011;9059;49.934;8.650;2022-12-28T05:48:05;3.35;;;1.40;;
17866;SDS011;9059;49.934;8.650;2022-12-28T05:49:06;5.43;;;1.42;;
17866;SDS011;9059;49.934;8.650;2022-12-28T05:50:09;3.25;;;1.27;;
17866;SDS011;9059;49.934;8.650;2022-12-28T05:51:12;3.88;;;1.50;;
17866;SDS011;9059;49.934;8.650;2022-12-28T05:52:16;3.72;;;1.13;;
17866;SDS011;9059;49.934;8.650;2022-12-28T05:53:19;2.78;;;1.30;;
17866;SDS011;9059;49.934;8.650;2022-12-28T05:54:21;3.63;;;1.60;;
17866;SDS011;9059;49.934;8.650;2022-12-28T05:55:23;5.10;;;1.35;;
17866;SDS011;9059;49.934;8.650;2022-12-28T05:56:27;4.57;;;1.42;;
17866;SDS011;9059;49.934;8.650;2022-12-28T05:57:29;4.47;;;1.33;;
17866;SDS011;9059;49.934;8.650;2022-12-28T05:58:32;2.53;;;1.30;;
17866;SDS011;9059;49.934;8.650;2022-12-28T05:59:34;7.35;;;1.60;;
17866;SDS011;9059;49.934;8.650;2022-12-28T06:00:36;4.63;;;1.52;;
17866;SDS011;9059;49.934;8.650;2022-12-28T06:01:39;2.50;;;1.10;;
17866;SDS011;9059;49.934;8.650;2022-12-28T06:02:44;5.82;;;1.50;;
17866;SDS011;9059;49.934;8.650;2022-12-28T06:03:47;4.15;;;1.67;;
17866;SDS011;9059;49.934;8.650;2022-12-28T06:04:53;5.13;;;1.20;;
17866;SDS011;9059;49.934;8.650;2022-12-28T06:05:56;3.53;;;1.30;;
17866;SDS011;9059;49.934;8.650;2022-12-28T06:06:57;2.33;;;1.20;;
17866;SDS011;9059;49.934;8.650;2022-12-28T06:08:00;2.85;;;1.20;;
17866;SDS011;9059;49.934;8.650;2022-12-28T06:09:03;4.03;;;1.35;;
17866;SDS011;9059;49.934;8.650;2022-12-28T06:10:06;7.75;;;1.35;;
17866;SDS011;9059;49.934;8.650;2022-12-28T06:11:09;8.75;;;2.10;;
17866;SDS011;9059;49.934;8.650;2022-12-28T06:12:13;2.53;;;1.13;;
17866;SDS011;9059;49.934;8.650;2022-12-28T06:13:15;2.88;;;1.52;;
17866;SDS011;9059;49.934;8.650;2022-12-28T06:14:17;3.10;;;1.23;;
17866;SDS011;9059;49.934;8.650;2022-12-28T06:15:19;2.67;;;1.20;;
17866;SDS011;9059;49.934;8.650;2022-12-28T06:16:22;3.40;;;1.45;;
17866;SDS011;9059;49.934;8.650;2022-12-28T06:17:25;2.83;;;1.48;;
17866;SDS011;9059;49.934;8.650;2022-12-28T06:18:28;2.80;;;1.30;;
17866;SDS011;9059;49.934;8.650;2022-12-28T06:19:30;2.15;;;1.15;;
17866;SDS011;9059;49.934;8.650;2022-12-28T06:20:33;4.18;;;1.20;;
17866;SDS011;9059;49.934;8.650;2022-12-28T06:21:35;3.97;;;1.58;;
17866;SDS011;9059;49.934;8.650;2022-12-28T06:22:39;7.15;;;1.48;;
17866;SDS011;9059;49.934;8.650;2022-12-28T06:23:41;3.75;;;1.67;;
17866;SDS011;9059;49.934;8.650;2022-12-28T06:24:45;4.00;;;1.27;;
17866;SDS011;9059;49.934;8.650;2022-12-28T06:25:47;1.98;;;1.02;;
17866;SDS011;9059;49.934;8.650;2022-12-28T06:26:50;2.50;;;1.23;;
17866;SDS011;9059;49.934;8.650;2022-12-28T06:27:52;3.45;;;1.25;;
17866;SDS011;9059;49.934;8.650;2022-12-28T06:28:54;2.85;;;1.10;;
17866;SDS011;9059;49.934;8.650;2022-12-28T06:29:57;3.35;;;1.30;;
17866;SDS011;9059;49.934;8.650;2022-12-28T06:31:00;3.15;;;1.17;;
17866;SDS011;9059;49.934;8.650;2022-12-28T06:32:04;3.25;;;1.50;;
17866;SDS011;9059;49.934;8.650;2022-12-28T06:33:06;2.97;;;0.80;;
17866;SDS011;9059;49.934;8.650;2022-12-28T06:34:09;2.83;;;1.27;;
17866;SDS011;9059;49.934;8.650;2022-12-28T06:35:11;5.35;;;1.40;;
17866;SDS011;9059;49.934;8.650;2022-12-28T06:36:14;4.13;;;1.38;;
17866;SDS011;9059;49.934;8.650;2022-12-28T06:37:21;5.45;;;1.20;;
17866;SDS011;9059;49.934;8.650;2022-12-28T06:38:23;2.35;;;1.20;;
17866;SDS011;9059;49.934;8.650;2022-12-28T06:39:25;5.55;;;1.23;;
17866;SDS011;9059;49.934;8.650;2022-12-28T06:40:30;2.35;;;1.40;;